Hub


Voltar

 INFORMAÇÕES METEOROLÓGICAS

METAR FOR LXGB


ADDS - METARS form results

(1252 UTC 26 April 2019)
Data provider http://aviationweather.gov/metar/data/
 
Forecast for: LXGB (GIBRALTAR (CIV/M, GI)
Text: TAF LXGB 261042Z 2612/2621 VRB05KT CAVOK
Forecast period: 1200 to 2100 UTC 26 April 2019
Forecast type: FROM: standard forecast or significant change
Winds: variable direction winds at 6 MPH (5 knots; 2.6 m/s)
Visibility: 6 or more miles 10+ km)
Ceiling: unknown
Clouds: missing
Weather: NSW  (no significant weather)


 MAPA DO AEROPORTO


 INFORMAÇÕES DA PISTA

Pista 09 Tamanho da pista 6000 ft Largura da pista 150 ft
Elevação da pista 10 ft Ranhura da pista 302 ft Proa da pista 88
Pista 27 Tamanho da pista 6000 ft Largura da pista 150 ft
Elevação da pista 11 ft Ranhura da pista 368 ft Proa da pista 268

 FREQUÊNCIAS DO AEROPORTO

Tipo A/D Nome APP Frequência 122.8 MHZ
Tipo OPS Nome GIB TALKDO Frequência 130.4 MHZ
Tipo TWR Nome TWR Frequência 131.2 MHZ

 AUXÍLIOS DE NAVEGAÇÃO PRÓXIMOS AO AEROPORTO

Tipo TACAN Nome Gibraltar Frequência 113600 KHZ